Terminal Aerodrome Forecast
Issued by NWS Melbourne, FL

Home | Current Version | Previous Version | Text Only | Print | Product List | Glossary On
Versions: 1 2 3 4 5 6 7 8 9 10 11 12 13 14 15
000
FTUS42 KMLB 201741
TAFDAB
TAF
KDAB 201741Z 2018/2118 06009KT P6SM FEW030 FEW100
     FM210200 VRB02KT P6SM SKC
     FM211500 04006KT P6SM SCT030 SCT250=

USA.gov is the U.S. government's official web portal to all federal, state and local government web resources and services.